createdAt,value
2022-12-24T00:01:04.000Z,282.54
2022-12-24T00:03:10.000Z,282.53
2022-12-24T00:04:37.000Z,282.56
2022-12-24T00:06:43.000Z,282.59
2022-12-24T00:08:10.000Z,282.59
2022-12-24T00:10:16.000Z,282.59
2022-12-24T00:11:43.000Z,282.56
2022-12-24T00:13:49.000Z,282.59
2022-12-24T00:15:15.000Z,282.63
2022-12-24T00:17:21.000Z,282.61
2022-12-24T00:18:48.000Z,282.64
2022-12-24T00:20:54.000Z,282.66
2022-12-24T00:23:45.000Z,282.59
2022-12-24T00:25:12.000Z,282.56
2022-12-24T00:27:18.000Z,282.54
2022-12-24T00:28:44.000Z,282.53
2022-12-24T00:30:50.000Z,282.54
2022-12-24T00:32:17.000Z,282.56
2022-12-24T00:34:23.000Z,282.56
2022-12-24T00:35:50.000Z,282.56
2022-12-24T00:37:56.000Z,282.59
2022-12-24T00:39:22.000Z,282.6
2022-12-24T00:41:28.000Z,282.57
2022-12-24T00:42:55.000Z,282.57
2022-12-24T00:45:02.000Z,282.56
2022-12-24T00:46:28.000Z,282.56
2022-12-24T00:48:35.000Z,282.52
2022-12-24T00:50:01.000Z,282.5
2022-12-24T00:52:07.000Z,282.47
2022-12-24T00:53:34.000Z,282.46
2022-12-24T00:55:40.000Z,282.41
2022-12-24T00:57:07.000Z,282.41
2022-12-24T00:59:13.000Z,282.41
2022-12-24T01:02:04.000Z,282.43
2022-12-24T01:03:31.000Z,282.41
2022-12-24T01:05:37.000Z,282.39
2022-12-24T01:07:03.000Z,282.39
2022-12-24T01:09:10.000Z,282.38
2022-12-24T01:10:36.000Z,282.36
2022-12-24T01:12:42.000Z,282.35
2022-12-24T01:14:09.000Z,282.35
2022-12-24T01:16:15.000Z,282.31
2022-12-24T01:17:41.000Z,282.35
2022-12-24T01:19:48.000Z,282.34
2022-12-24T01:21:14.000Z,282.3
2022-12-24T01:23:20.000Z,282.28
2022-12-24T01:24:47.000Z,282.31
2022-12-24T01:26:53.000Z,282.34
2022-12-24T01:28:19.000Z,282.3
2022-12-24T01:30:25.000Z,282.27
2022-12-24T01:31:52.000Z,282.26
2022-12-24T01:33:58.000Z,282.3
2022-12-24T01:35:25.000Z,282.34
2022-12-24T01:37:31.000Z,282.31
2022-12-24T01:40:22.000Z,282.31
2022-12-24T01:41:48.000Z,282.31
2022-12-24T01:43:55.000Z,282.34
2022-12-24T01:45:21.000Z,282.34
2022-12-24T01:47:27.000Z,282.31
2022-12-24T01:48:54.000Z,282.3
2022-12-24T01:51:00.000Z,282.28
2022-12-24T01:52:27.000Z,282.3
2022-12-24T01:54:33.000Z,282.3
2022-12-24T01:55:59.000Z,282.28
2022-12-24T01:58:05.000Z,282.3
2022-12-24T01:59:32.000Z,282.28
2022-12-24T02:01:38.000Z,282.26
2022-12-24T02:03:05.000Z,282.23
2022-12-24T02:05:11.000Z,282.19
2022-12-24T02:06:38.000Z,282.24
2022-12-24T02:08:44.000Z,282.34
2022-12-24T02:10:11.000Z,282.3
2022-12-24T02:12:17.000Z,282.31
2022-12-24T02:13:43.000Z,282.3
2022-12-24T02:15:49.000Z,282.3
2022-12-24T02:18:41.000Z,282.26
2022-12-24T02:20:07.000Z,282.26
2022-12-24T02:22:13.000Z,282.21
2022-12-24T02:23:40.000Z,282.17
2022-12-24T02:25:46.000Z,282.19
2022-12-24T02:27:13.000Z,282.19
2022-12-24T02:29:19.000Z,282.14
2022-12-24T02:30:45.000Z,282.14
2022-12-24T02:32:51.000Z,282.1
2022-12-24T02:34:18.000Z,282.06
2022-12-24T02:36:24.000Z,282.01
2022-12-24T02:37:51.000Z,281.92
2022-12-24T02:39:57.000Z,281.88
2022-12-24T02:41:23.000Z,281.87
2022-12-24T02:43:29.000Z,281.88
2022-12-24T02:44:56.000Z,281.87
2022-12-24T02:47:02.000Z,281.89
2022-12-24T02:48:29.000Z,281.89
2022-12-24T02:50:35.000Z,281.88
2022-12-24T02:52:01.000Z,281.82
2022-12-24T02:54:08.000Z,281.82
2022-12-24T02:56:59.000Z,281.81
2022-12-24T02:58:25.000Z,281.81
2022-12-24T03:00:32.000Z,281.84
2022-12-24T03:01:58.000Z,281.85
2022-12-24T03:04:05.000Z,281.81
2022-12-24T03:05:31.000Z,281.75
2022-12-24T03:07:37.000Z,281.7
2022-12-24T03:09:04.000Z,281.68
2022-12-24T03:11:10.000Z,281.65
2022-12-24T03:12:36.000Z,281.62
2022-12-24T03:14:42.000Z,281.58
2022-12-24T03:16:09.000Z,281.54
2022-12-24T03:18:15.000Z,281.55
2022-12-24T03:19:41.000Z,281.54
2022-12-24T03:21:48.000Z,281.54
2022-12-24T03:23:14.000Z,281.55
2022-12-24T03:25:20.000Z,281.56
2022-12-24T03:26:47.000Z,281.56
2022-12-24T03:28:53.000Z,281.58
2022-12-24T03:30:19.000Z,281.59
2022-12-24T03:32:25.000Z,281.58
2022-12-24T03:35:17.000Z,281.58
2022-12-24T03:36:43.000Z,281.56
2022-12-24T03:38:49.000Z,281.52
2022-12-24T03:40:16.000Z,281.52
2022-12-24T03:42:22.000Z,281.51
2022-12-24T03:43:49.000Z,281.48
2022-12-24T03:45:55.000Z,281.47
2022-12-24T03:47:21.000Z,281.43
2022-12-24T03:49:27.000Z,281.4
2022-12-24T03:50:54.000Z,281.39
2022-12-24T03:53:00.000Z,281.39
2022-12-24T03:54:26.000Z,281.37
2022-12-24T03:56:33.000Z,281.37
2022-12-24T03:57:59.000Z,281.36
2022-12-24T04:00:05.000Z,281.33
2022-12-24T04:01:32.000Z,281.29
2022-12-24T04:03:38.000Z,281.29
2022-12-24T04:05:05.000Z,281.26
2022-12-24T04:07:11.000Z,281.25
2022-12-24T04:08:37.000Z,281.25
2022-12-24T04:10:44.000Z,281.23
2022-12-24T04:13:35.000Z,281.22
2022-12-24T04:15:01.000Z,281.26
2022-12-24T04:17:07.000Z,281.28
2022-12-24T04:18:34.000Z,281.29
2022-12-24T04:20:40.000Z,281.36
2022-12-24T04:22:07.000Z,281.39
2022-12-24T04:24:13.000Z,281.39
2022-12-24T04:25:39.000Z,281.4
2022-12-24T04:27:45.000Z,281.45
2022-12-24T04:29:12.000Z,281.45
2022-12-24T04:31:18.000Z,281.45
2022-12-24T04:32:45.000Z,281.51
2022-12-24T04:34:51.000Z,281.52
2022-12-24T04:36:17.000Z,281.56
2022-12-24T04:38:23.000Z,281.62
2022-12-24T04:39:50.000Z,281.69
2022-12-24T04:41:56.000Z,281.72
2022-12-24T04:43:23.000Z,281.72
2022-12-24T04:45:29.000Z,281.76
2022-12-24T04:46:55.000Z,281.77
2022-12-24T04:49:01.000Z,281.79
2022-12-24T04:51:52.000Z,281.77
2022-12-24T04:53:19.000Z,281.81
2022-12-24T04:55:25.000Z,281.84
2022-12-24T04:56:51.000Z,281.85
2022-12-24T04:58:57.000Z,281.84
2022-12-24T05:00:24.000Z,281.84
2022-12-24T05:02:30.000Z,281.81
2022-12-24T05:03:57.000Z,281.84
2022-12-24T05:06:03.000Z,281.85
2022-12-24T05:07:30.000Z,281.85
2022-12-24T05:09:36.000Z,281.82
2022-12-24T05:11:04.000Z,281.82
2022-12-24T05:13:10.000Z,281.76
2022-12-24T05:14:36.000Z,281.75
2022-12-24T05:16:42.000Z,281.72
2022-12-24T05:18:09.000Z,281.7
2022-12-24T05:20:15.000Z,281.7
2022-12-24T05:21:42.000Z,281.68
2022-12-24T05:23:48.000Z,281.69
2022-12-24T05:25:14.000Z,281.68
2022-12-24T05:27:20.000Z,281.69
2022-12-24T05:30:11.000Z,281.66
2022-12-24T05:31:37.000Z,281.72
2022-12-24T05:33:44.000Z,281.7
2022-12-24T05:35:10.000Z,281.7
2022-12-24T05:37:16.000Z,281.66
2022-12-24T05:38:43.000Z,281.63
2022-12-24T05:40:49.000Z,281.59
2022-12-24T05:42:15.000Z,281.56
2022-12-24T05:44:21.000Z,281.51
2022-12-24T05:45:48.000Z,281.47
2022-12-24T05:47:54.000Z,281.4
2022-12-24T05:49:20.000Z,281.35
2022-12-24T05:51:26.000Z,281.32
2022-12-24T05:52:53.000Z,281.28
2022-12-24T05:54:59.000Z,281.26
2022-12-24T05:56:26.000Z,281.23
2022-12-24T05:58:32.000Z,281.25
2022-12-24T05:59:58.000Z,281.23
2022-12-24T06:02:04.000Z,281.23
2022-12-24T06:03:31.000Z,281.23
2022-12-24T06:05:37.000Z,281.22
2022-12-24T06:08:29.000Z,281.21
2022-12-24T06:09:55.000Z,281.19
2022-12-24T06:12:01.000Z,281.16
2022-12-24T06:13:28.000Z,281.14
2022-12-24T06:15:34.000Z,281.12
2022-12-24T06:17:00.000Z,281.12
2022-12-24T06:19:07.000Z,281.11
2022-12-24T06:20:33.000Z,281.1
2022-12-24T06:22:39.000Z,281.1
2022-12-24T06:24:06.000Z,281.07
2022-12-24T06:26:12.000Z,281.05
2022-12-24T06:27:38.000Z,281.04
2022-12-24T06:29:45.000Z,281.03
2022-12-24T06:31:11.000Z,281.01
2022-12-24T06:33:17.000Z,281
2022-12-24T06:34:44.000Z,280.98
2022-12-24T06:36:50.000Z,280.97
2022-12-24T06:38:17.000Z,280.96
2022-12-24T06:40:23.000Z,280.96
2022-12-24T06:41:49.000Z,280.96
2022-12-24T06:43:55.000Z,280.93
2022-12-24T06:46:46.000Z,280.91
2022-12-24T06:48:13.000Z,280.9
2022-12-24T06:50:19.000Z,280.9
2022-12-24T06:51:46.000Z,280.89
2022-12-24T06:53:52.000Z,280.89
2022-12-24T06:55:18.000Z,280.89
2022-12-24T06:57:25.000Z,280.87
2022-12-24T06:58:51.000Z,280.86
2022-12-24T07:00:57.000Z,280.87
2022-12-24T07:02:24.000Z,280.87
2022-12-24T07:04:30.000Z,280.87
2022-12-24T07:05:57.000Z,280.86
2022-12-24T07:08:03.000Z,280.86
2022-12-24T07:09:29.000Z,280.84
2022-12-24T07:11:36.000Z,280.82
2022-12-24T07:13:02.000Z,280.8
2022-12-24T07:15:08.000Z,280.76
2022-12-24T07:16:35.000Z,280.73
2022-12-24T07:18:41.000Z,280.69
2022-12-24T07:20:08.000Z,280.66
2022-12-24T07:22:14.000Z,280.62
2022-12-24T07:25:06.000Z,280.56
2022-12-24T07:26:33.000Z,280.51
2022-12-24T07:28:39.000Z,280.49
2022-12-24T07:30:06.000Z,280.47
2022-12-24T07:32:12.000Z,280.43
2022-12-24T07:33:38.000Z,280.4
2022-12-24T07:35:45.000Z,280.4
2022-12-24T07:37:15.000Z,280.37
2022-12-24T07:39:22.000Z,280.35
2022-12-24T07:40:48.000Z,280.32
2022-12-24T07:42:54.000Z,280.32
2022-12-24T07:44:21.000Z,280.32
2022-12-24T07:46:27.000Z,280.32
2022-12-24T07:47:53.000Z,280.31
2022-12-24T07:50:00.000Z,280.28
2022-12-24T07:51:26.000Z,280.25
2022-12-24T07:53:32.000Z,280.24
2022-12-24T07:54:59.000Z,280.24
2022-12-24T07:57:05.000Z,280.23
2022-12-24T07:58:31.000Z,280.21
2022-12-24T08:00:38.000Z,280.23
2022-12-24T08:03:29.000Z,280.24
2022-12-24T08:04:55.000Z,280.32
2022-12-24T08:07:02.000Z,280.37
2022-12-24T08:08:28.000Z,280.42
2022-12-24T08:10:34.000Z,280.46
2022-12-24T08:12:01.000Z,280.47
2022-12-24T08:14:07.000Z,280.51
2022-12-24T08:15:33.000Z,280.56
2022-12-24T08:17:39.000Z,280.61
2022-12-24T08:19:06.000Z,280.64
2022-12-24T08:21:12.000Z,280.68
2022-12-24T08:22:39.000Z,280.75
2022-12-24T08:24:45.000Z,280.82
2022-12-24T08:26:11.000Z,280.84
2022-12-24T08:28:17.000Z,280.84
2022-12-24T08:29:44.000Z,280.84
2022-12-24T08:31:50.000Z,280.87
2022-12-24T08:33:17.000Z,280.87
2022-12-24T08:35:23.000Z,280.93
2022-12-24T08:36:49.000Z,280.91
2022-12-24T08:38:55.000Z,280.93
2022-12-24T08:41:46.000Z,280.94
2022-12-24T08:43:13.000Z,280.97
2022-12-24T08:45:19.000Z,280.97
2022-12-24T08:46:46.000Z,280.98
2022-12-24T08:48:52.000Z,280.97
2022-12-24T08:50:18.000Z,280.97
2022-12-24T08:52:24.000Z,280.97
2022-12-24T08:53:51.000Z,280.97
2022-12-24T08:55:57.000Z,280.96
2022-12-24T08:57:24.000Z,280.94
2022-12-24T08:59:30.000Z,280.94
2022-12-24T09:00:56.000Z,280.94
2022-12-24T09:03:03.000Z,280.94
2022-12-24T09:04:29.000Z,280.93
2022-12-24T09:06:35.000Z,280.93
2022-12-24T09:08:02.000Z,280.96
2022-12-24T09:10:08.000Z,280.98
2022-12-24T09:11:34.000Z,281
2022-12-24T09:13:41.000Z,281.01
2022-12-24T09:15:07.000Z,281.04
2022-12-24T09:17:14.000Z,281.03
2022-12-24T09:20:05.000Z,281.05
2022-12-24T09:21:31.000Z,281.1
2022-12-24T09:23:37.000Z,281.11
2022-12-24T09:25:04.000Z,281.11
2022-12-24T09:27:10.000Z,281.15
2022-12-24T09:28:37.000Z,281.16
2022-12-24T09:30:43.000Z,281.18
2022-12-24T09:32:10.000Z,281.22
2022-12-24T09:34:16.000Z,281.23
2022-12-24T09:35:43.000Z,281.25
2022-12-24T09:37:49.000Z,281.25
2022-12-24T09:39:15.000Z,281.26
2022-12-24T09:41:21.000Z,281.26
2022-12-24T09:42:48.000Z,281.28
2022-12-24T09:44:54.000Z,281.28
2022-12-24T09:46:21.000Z,281.29
2022-12-24T09:48:27.000Z,281.3
2022-12-24T09:49:53.000Z,281.3
2022-12-24T09:52:00.000Z,281.32
2022-12-24T09:53:26.000Z,281.32
2022-12-24T09:55:32.000Z,281.32
2022-12-24T09:58:24.000Z,281.35
2022-12-24T09:59:50.000Z,281.36
2022-12-24T10:01:56.000Z,281.36
2022-12-24T10:03:23.000Z,281.36
2022-12-24T10:05:29.000Z,281.39
2022-12-24T10:06:56.000Z,281.39
2022-12-24T10:09:02.000Z,281.42
2022-12-24T10:10:29.000Z,281.43
2022-12-24T10:12:35.000Z,281.48
2022-12-24T10:14:01.000Z,281.47
2022-12-24T10:16:07.000Z,281.47
2022-12-24T10:17:34.000Z,281.47
2022-12-24T10:19:40.000Z,281.43
2022-12-24T10:21:07.000Z,281.45
2022-12-24T10:23:13.000Z,281.47
2022-12-24T10:24:39.000Z,281.45
2022-12-24T10:26:54.000Z,281.42
2022-12-24T10:28:20.000Z,281.42
2022-12-24T10:30:26.000Z,281.39
2022-12-24T10:31:53.000Z,281.37
2022-12-24T10:33:59.000Z,281.37
2022-12-24T10:36:50.000Z,281.43
2022-12-24T10:38:17.000Z,281.45
2022-12-24T10:40:23.000Z,281.43
2022-12-24T10:41:49.000Z,281.43
2022-12-24T10:43:55.000Z,281.42
2022-12-24T10:45:22.000Z,281.43
2022-12-24T10:47:28.000Z,281.47
2022-12-24T10:48:55.000Z,281.48
2022-12-24T10:51:01.000Z,281.48
2022-12-24T10:52:27.000Z,281.54
2022-12-24T10:54:34.000Z,281.55
2022-12-24T10:56:00.000Z,281.58
2022-12-24T10:58:06.000Z,281.62
2022-12-24T10:59:33.000Z,281.61
2022-12-24T11:01:39.000Z,281.62
2022-12-24T11:03:06.000Z,281.66
2022-12-24T11:05:12.000Z,281.7
2022-12-24T11:06:38.000Z,281.7
2022-12-24T11:08:44.000Z,281.7
2022-12-24T11:10:11.000Z,281.75
2022-12-24T11:12:17.000Z,281.76
2022-12-24T11:15:08.000Z,281.79
2022-12-24T11:16:35.000Z,281.82
2022-12-24T11:18:41.000Z,281.84
2022-12-24T11:20:17.000Z,281.87
2022-12-24T11:22:23.000Z,281.89
2022-12-24T11:23:49.000Z,281.92
2022-12-24T11:25:55.000Z,281.92
2022-12-24T11:27:22.000Z,281.96
2022-12-24T11:29:28.000Z,281.99
2022-12-24T11:30:55.000Z,282.01
2022-12-24T11:33:01.000Z,282.02
2022-12-24T11:34:27.000Z,282.06
2022-12-24T11:36:33.000Z,282.13
2022-12-24T11:38:00.000Z,282.17
2022-12-24T11:40:06.000Z,282.2
2022-12-24T11:41:33.000Z,282.2
2022-12-24T11:43:39.000Z,282.2
2022-12-24T11:45:05.000Z,282.21
2022-12-24T11:47:11.000Z,282.19
2022-12-24T11:48:38.000Z,282.16
2022-12-24T11:50:44.000Z,282.16
2022-12-24T11:53:35.000Z,282.16
2022-12-24T11:55:02.000Z,282.16
2022-12-24T11:57:08.000Z,282.14
2022-12-24T11:58:35.000Z,282.16
2022-12-24T12:00:41.000Z,282.16
2022-12-24T12:02:07.000Z,282.16
2022-12-24T12:04:13.000Z,282.17
2022-12-24T12:05:40.000Z,282.16
2022-12-24T12:07:46.000Z,282.14
2022-12-24T12:09:13.000Z,282.12
2022-12-24T12:11:19.000Z,282.12
2022-12-24T12:12:45.000Z,282.1
2022-12-24T12:14:51.000Z,282.1
2022-12-24T12:16:18.000Z,282.12
2022-12-24T12:18:24.000Z,282.13
2022-12-24T12:19:51.000Z,282.14
2022-12-24T12:21:57.000Z,282.16
2022-12-24T12:23:23.000Z,282.2
2022-12-24T12:25:29.000Z,282.24
2022-12-24T12:26:56.000Z,282.3
2022-12-24T12:29:02.000Z,282.36
2022-12-24T12:31:53.000Z,282.39
2022-12-24T12:33:20.000Z,282.41
2022-12-24T12:35:26.000Z,282.42
2022-12-24T12:36:53.000Z,282.39
2022-12-24T12:38:59.000Z,282.39
2022-12-24T12:40:25.000Z,282.36
2022-12-24T12:42:31.000Z,282.36
2022-12-24T12:43:58.000Z,282.38
2022-12-24T12:46:04.000Z,282.36
2022-12-24T12:47:30.000Z,282.35
2022-12-24T12:49:37.000Z,282.34
2022-12-24T12:51:03.000Z,282.3
2022-12-24T12:53:09.000Z,282.27
2022-12-24T12:54:36.000Z,282.27
2022-12-24T12:56:42.000Z,282.23
2022-12-24T12:58:08.000Z,282.23
2022-12-24T13:00:15.000Z,282.19
2022-12-24T13:01:41.000Z,282.16
2022-12-24T13:03:47.000Z,282.13
2022-12-24T13:05:14.000Z,282.09
2022-12-24T13:07:20.000Z,282.09
2022-12-24T13:10:11.000Z,282.03
2022-12-24T13:11:38.000Z,282.01
2022-12-24T13:13:44.000Z,282.01
2022-12-24T13:15:10.000Z,281.99
2022-12-24T13:17:17.000Z,281.99
2022-12-24T13:18:43.000Z,282.02
2022-12-24T13:20:49.000Z,282.03
2022-12-24T13:22:16.000Z,282.03
2022-12-24T13:24:22.000Z,282.08
2022-12-24T13:25:48.000Z,282.1
2022-12-24T13:27:55.000Z,282.12
2022-12-24T13:29:21.000Z,282.13
2022-12-24T13:31:27.000Z,282.14
2022-12-24T13:32:54.000Z,282.16
2022-12-24T13:35:00.000Z,282.16
2022-12-24T13:36:27.000Z,282.13
2022-12-24T13:38:33.000Z,282.1
2022-12-24T13:39:59.000Z,282.05
2022-12-24T13:42:06.000Z,282.02
2022-12-24T13:43:32.000Z,281.98
2022-12-24T13:45:38.000Z,281.91
2022-12-24T13:48:30.000Z,281.84
2022-12-24T13:49:56.000Z,281.77
2022-12-24T13:52:02.000Z,281.72
2022-12-24T13:53:29.000Z,281.69
2022-12-24T13:55:35.000Z,281.66
2022-12-24T13:57:02.000Z,281.65
2022-12-24T13:59:08.000Z,281.66
2022-12-24T14:00:34.000Z,281.63
2022-12-24T14:02:41.000Z,281.65
2022-12-24T14:04:08.000Z,281.61
2022-12-24T14:06:14.000Z,281.56
2022-12-24T14:07:40.000Z,281.54
2022-12-24T14:09:47.000Z,281.49
2022-12-24T14:11:13.000Z,281.49
2022-12-24T14:13:19.000Z,281.47
2022-12-24T14:14:46.000Z,281.42
2022-12-24T14:16:52.000Z,281.4
2022-12-24T14:18:19.000Z,281.39
2022-12-24T14:20:25.000Z,281.37
2022-12-24T14:21:51.000Z,281.35
2022-12-24T14:23:57.000Z,281.35
2022-12-24T14:26:48.000Z,281.4
2022-12-24T14:28:15.000Z,281.47
2022-12-24T14:30:21.000Z,281.49
2022-12-24T14:31:48.000Z,281.52
2022-12-24T14:33:54.000Z,281.51
2022-12-24T14:35:21.000Z,281.54
2022-12-24T14:37:27.000Z,281.59
2022-12-24T14:39:00.000Z,281.59
2022-12-24T14:41:07.000Z,281.59
2022-12-24T14:42:33.000Z,281.61
2022-12-24T14:44:39.000Z,281.62
2022-12-24T14:46:06.000Z,281.61
2022-12-24T14:48:12.000Z,281.56
2022-12-24T14:49:39.000Z,281.51
2022-12-24T14:51:45.000Z,281.48
2022-12-24T14:53:11.000Z,281.42
2022-12-24T14:55:25.000Z,281.36
2022-12-24T14:56:51.000Z,281.32
2022-12-24T14:58:57.000Z,281.28
2022-12-24T15:00:24.000Z,281.23
2022-12-24T15:02:30.000Z,281.22
2022-12-24T15:05:21.000Z,281.22
2022-12-24T15:06:47.000Z,281.23
2022-12-24T15:08:53.000Z,281.28
2022-12-24T15:10:20.000Z,281.29
2022-12-24T15:12:26.000Z,281.3
2022-12-24T15:13:53.000Z,281.29
2022-12-24T15:15:59.000Z,281.25
2022-12-24T15:17:25.000Z,281.21
2022-12-24T15:19:31.000Z,281.16
2022-12-24T15:20:58.000Z,281.12
2022-12-24T15:23:10.000Z,281.05
2022-12-24T15:24:37.000Z,281.01
2022-12-24T15:26:43.000Z,280.97
2022-12-24T15:28:09.000Z,280.94
2022-12-24T15:30:15.000Z,280.89
2022-12-24T15:31:42.000Z,280.86
2022-12-24T15:33:48.000Z,280.83
2022-12-24T15:35:14.000Z,280.78
2022-12-24T15:37:20.000Z,280.73
2022-12-24T15:38:47.000Z,280.68
2022-12-24T15:40:53.000Z,280.65
2022-12-24T15:43:44.000Z,280.66
2022-12-24T15:45:11.000Z,280.69
2022-12-24T15:47:17.000Z,280.72
2022-12-24T15:48:44.000Z,280.75
2022-12-24T15:50:50.000Z,280.75
2022-12-24T15:52:16.000Z,280.73
2022-12-24T15:54:22.000Z,280.72
2022-12-24T15:55:49.000Z,280.71
2022-12-24T15:57:55.000Z,280.73
2022-12-24T15:59:22.000Z,280.83
2022-12-24T16:01:28.000Z,280.86
2022-12-24T16:02:55.000Z,280.89
2022-12-24T16:05:01.000Z,280.91
2022-12-24T16:06:27.000Z,280.96
2022-12-24T16:08:34.000Z,280.98
2022-12-24T16:10:00.000Z,280.97
2022-12-24T16:12:06.000Z,280.91
2022-12-24T16:13:33.000Z,280.9
2022-12-24T16:15:39.000Z,280.86
2022-12-24T16:17:06.000Z,280.8
2022-12-24T16:19:12.000Z,280.8
2022-12-24T16:22:03.000Z,280.79
2022-12-24T16:23:29.000Z,280.78
2022-12-24T16:25:36.000Z,280.72
2022-12-24T16:27:02.000Z,280.71
2022-12-24T16:29:08.000Z,280.64
2022-12-24T16:30:35.000Z,280.61
2022-12-24T16:32:41.000Z,280.56
2022-12-24T16:34:07.000Z,280.49
2022-12-24T16:36:13.000Z,280.46
2022-12-24T16:37:40.000Z,280.4
2022-12-24T16:39:46.000Z,280.35
2022-12-24T16:41:13.000Z,280.31
2022-12-24T16:43:19.000Z,280.27
2022-12-24T16:44:45.000Z,280.21
2022-12-24T16:46:51.000Z,280.17
2022-12-24T16:48:18.000Z,280.09
2022-12-24T16:50:24.000Z,280.05
2022-12-24T16:51:51.000Z,279.92
2022-12-24T16:53:57.000Z,279.86
2022-12-24T16:55:23.000Z,279.76
2022-12-24T16:57:30.000Z,279.69
2022-12-24T17:00:21.000Z,279.62
2022-12-24T17:01:47.000Z,279.56
2022-12-24T17:03:54.000Z,279.52
2022-12-24T17:05:20.000Z,279.48
2022-12-24T17:07:26.000Z,279.41
2022-12-24T17:08:53.000Z,279.31
2022-12-24T17:10:59.000Z,279.23
2022-12-24T17:12:25.000Z,279.13
2022-12-24T17:14:32.000Z,279.08
2022-12-24T17:15:58.000Z,279.03
2022-12-24T17:18:04.000Z,278.97
2022-12-24T17:19:31.000Z,278.89
2022-12-24T17:21:37.000Z,278.83
2022-12-24T17:23:04.000Z,278.76
2022-12-24T17:25:10.000Z,278.74
2022-12-24T17:26:36.000Z,278.65
2022-12-24T17:28:42.000Z,278.58
2022-12-24T17:30:09.000Z,278.49
2022-12-24T17:32:15.000Z,278.43
2022-12-24T17:33:42.000Z,278.37
2022-12-24T17:35:48.000Z,278.33
2022-12-24T17:38:39.000Z,278.25
2022-12-24T17:40:06.000Z,278.22
2022-12-24T17:42:12.000Z,278.14
2022-12-24T17:43:38.000Z,278.11
2022-12-24T17:45:44.000Z,278.1
2022-12-24T17:47:11.000Z,278.06
2022-12-24T17:49:17.000Z,278.04
2022-12-24T17:50:44.000Z,278.02
2022-12-24T17:52:50.000Z,278
2022-12-24T17:54:16.000Z,277.96
2022-12-24T17:56:22.000Z,277.93
2022-12-24T17:57:49.000Z,277.92
2022-12-24T17:59:55.000Z,277.91
2022-12-24T18:01:22.000Z,277.88
2022-12-24T18:03:28.000Z,277.85
2022-12-24T18:04:54.000Z,277.82
2022-12-24T18:07:01.000Z,277.81
2022-12-24T18:08:29.000Z,277.77
2022-12-24T18:10:35.000Z,277.74
2022-12-24T18:12:02.000Z,277.7
2022-12-24T18:14:08.000Z,277.67
2022-12-24T18:16:59.000Z,277.64
2022-12-24T18:18:26.000Z,277.6
2022-12-24T18:20:32.000Z,277.6
2022-12-24T18:21:58.000Z,277.56
2022-12-24T18:24:04.000Z,277.56
2022-12-24T18:25:31.000Z,277.56
2022-12-24T18:27:37.000Z,277.56
2022-12-24T18:29:03.000Z,277.53
2022-12-24T18:31:09.000Z,277.52
2022-12-24T18:32:36.000Z,277.46
2022-12-24T18:34:42.000Z,277.38
2022-12-24T18:36:09.000Z,277.38
2022-12-24T18:38:15.000Z,277.45
2022-12-24T18:39:42.000Z,277.49
2022-12-24T18:41:48.000Z,277.51
2022-12-24T18:43:14.000Z,277.49
2022-12-24T18:45:20.000Z,277.49
2022-12-24T18:46:47.000Z,277.45
2022-12-24T18:48:53.000Z,277.43
2022-12-24T18:50:20.000Z,277.38
2022-12-24T18:52:26.000Z,277.34
2022-12-24T18:55:17.000Z,277.26
2022-12-24T18:56:43.000Z,277.2
2022-12-24T18:58:49.000Z,277.18
2022-12-24T19:00:16.000Z,277.13
2022-12-24T19:02:22.000Z,277.09
2022-12-24T19:03:49.000Z,277.08
2022-12-24T19:05:55.000Z,277.04
2022-12-24T19:07:22.000Z,277.01
2022-12-24T19:09:28.000Z,277.01
2022-12-24T19:10:54.000Z,276.99
2022-12-24T19:13:00.000Z,276.97
2022-12-24T19:14:27.000Z,276.94
2022-12-24T19:16:33.000Z,276.88
2022-12-24T19:18:00.000Z,276.87
2022-12-24T19:20:06.000Z,276.84
2022-12-24T19:21:32.000Z,276.87
2022-12-24T19:23:39.000Z,276.86
2022-12-24T19:25:05.000Z,276.83
2022-12-24T19:27:11.000Z,276.83
2022-12-24T19:28:38.000Z,276.86
2022-12-24T19:30:44.000Z,276.87
2022-12-24T19:33:35.000Z,276.9
2022-12-24T19:35:08.000Z,276.91
2022-12-24T19:37:15.000Z,276.93
2022-12-24T19:38:41.000Z,276.94
2022-12-24T19:40:47.000Z,276.93
2022-12-24T19:42:14.000Z,276.91
2022-12-24T19:44:20.000Z,276.94
2022-12-24T19:45:46.000Z,276.95
2022-12-24T19:47:53.000Z,276.98
2022-12-24T19:49:19.000Z,277.01
2022-12-24T19:51:25.000Z,277.04
2022-12-24T19:52:52.000Z,277.06
2022-12-24T19:54:58.000Z,277.06
2022-12-24T19:56:24.000Z,277.05
2022-12-24T19:58:30.000Z,277.04
2022-12-24T19:59:57.000Z,277.02
2022-12-24T20:02:03.000Z,276.99
2022-12-24T20:03:30.000Z,276.97
2022-12-24T20:05:36.000Z,276.95
2022-12-24T20:07:02.000Z,276.94
2022-12-24T20:09:09.000Z,276.94
2022-12-24T20:12:00.000Z,276.93
2022-12-24T20:13:26.000Z,276.94
2022-12-24T20:15:32.000Z,276.94
2022-12-24T20:16:59.000Z,276.95
2022-12-24T20:19:05.000Z,276.95
2022-12-24T20:20:31.000Z,276.95
2022-12-24T20:22:38.000Z,276.95
2022-12-24T20:24:04.000Z,276.94
2022-12-24T20:26:10.000Z,276.94
2022-12-24T20:27:37.000Z,276.93
2022-12-24T20:29:43.000Z,276.91
2022-12-24T20:31:09.000Z,276.9
2022-12-24T20:33:16.000Z,276.87
2022-12-24T20:34:42.000Z,276.87
2022-12-24T20:36:48.000Z,276.86
2022-12-24T20:38:15.000Z,276.83
2022-12-24T20:40:21.000Z,276.84
2022-12-24T20:41:48.000Z,276.88
2022-12-24T20:43:54.000Z,276.93
2022-12-24T20:45:21.000Z,276.94
2022-12-24T20:47:27.000Z,276.97
2022-12-24T20:50:18.000Z,277.02
2022-12-24T20:51:45.000Z,277.15
2022-12-24T20:53:51.000Z,277.26
2022-12-24T20:55:17.000Z,277.63
2022-12-24T20:57:24.000Z,277.77
2022-12-24T20:58:56.000Z,277.97
2022-12-24T21:01:02.000Z,278.18
2022-12-24T21:02:29.000Z,278.26
2022-12-24T21:04:35.000Z,278.33
2022-12-24T21:06:02.000Z,278.35
2022-12-24T21:08:08.000Z,278.39
2022-12-24T21:09:34.000Z,278.53
2022-12-24T21:11:40.000Z,278.67
2022-12-24T21:13:07.000Z,278.82
2022-12-24T21:15:13.000Z,278.93
2022-12-24T21:16:40.000Z,278.94
2022-12-24T21:18:46.000Z,278.99
2022-12-24T21:20:13.000Z,279.05
2022-12-24T21:22:19.000Z,279.12
2022-12-24T21:23:45.000Z,279.09
2022-12-24T21:25:52.000Z,279.08
2022-12-24T21:28:43.000Z,278.99
2022-12-24T21:30:09.000Z,279.01
2022-12-24T21:32:15.000Z,278.9
2022-12-24T21:33:42.000Z,278.88
2022-12-24T21:35:48.000Z,278.82
2022-12-24T21:37:14.000Z,278.83
2022-12-24T21:39:21.000Z,278.82
2022-12-24T21:40:47.000Z,278.78
2022-12-24T21:42:53.000Z,278.72
2022-12-24T21:44:20.000Z,278.64
2022-12-24T21:46:26.000Z,278.56
2022-12-24T21:47:53.000Z,278.49
2022-12-24T21:49:59.000Z,278.46
2022-12-24T21:51:25.000Z,278.39
2022-12-24T21:53:31.000Z,278.37
2022-12-24T21:54:58.000Z,278.35
2022-12-24T21:57:04.000Z,278.32
2022-12-24T21:58:31.000Z,278.29
2022-12-24T22:00:37.000Z,278.29
2022-12-24T22:02:03.000Z,278.28
2022-12-24T22:04:10.000Z,278.25
2022-12-24T22:07:01.000Z,278.18
2022-12-24T22:08:28.000Z,278.17
2022-12-24T22:10:34.000Z,278.14
2022-12-24T22:12:00.000Z,278.1
2022-12-24T22:14:06.000Z,278.09
2022-12-24T22:15:33.000Z,278.04
2022-12-24T22:17:39.000Z,278.02
2022-12-24T22:19:05.000Z,277.99
2022-12-24T22:21:11.000Z,277.99
2022-12-24T22:22:38.000Z,277.99
2022-12-24T22:24:44.000Z,278
2022-12-24T22:26:11.000Z,278.07
2022-12-24T22:28:17.000Z,278.06
2022-12-24T22:29:43.000Z,278.02
2022-12-24T22:31:49.000Z,277.99
2022-12-24T22:33:16.000Z,277.93
2022-12-24T22:35:22.000Z,277.91
2022-12-24T22:36:49.000Z,277.88
2022-12-24T22:38:55.000Z,277.85
2022-12-24T22:40:22.000Z,277.81
2022-12-24T22:42:28.000Z,277.79
2022-12-24T22:45:19.000Z,277.81
2022-12-24T22:46:49.000Z,277.86
2022-12-24T22:48:55.000Z,277.84
2022-12-24T22:50:21.000Z,277.82